Time;durP1;ratioP1;P1;durP2;ratioP2;P2;SDS_P1;SDS_P2;PMS_P1;PMS_P2;Temp;Humidity;BMP_temperature;BMP_pressure;BME280_temperature;BME280_humidity;BME280_pressure;Samples;Min_cycle;Max_cycle;Signal;HPM_P1;HPM_P2
2021/03/25 00:00:14;;;;;;;19.20;10.55;;;11.60;99.90;;;;;;5071314;28;20218;-79
2021/03/25 00:02:42;;;;;;;16.60;12.38;;;11.60;99.90;;;;;;5072674;28;20256;-79
2021/03/25 00:05:11;;;;;;;16.35;11.50;;;11.60;99.90;;;;;;5071734;28;20194;-80
2021/03/25 00:07:37;;;;;;;17.88;12.93;;;11.60;99.90;;;;;;5071441;28;20195;-80
2021/03/25 00:10:06;;;;;;;14.20;11.90;;;11.60;99.90;;;;;;5071101;28;20229;-80
2021/03/25 00:12:32;;;;;;;16.98;11.23;;;11.50;99.90;;;;;;5076871;28;20565;-80
2021/03/25 00:14:59;;;;;;;14.18;11.57;;;11.60;99.90;;;;;;5091358;28;20213;-80
2021/03/25 00:17:25;;;;;;;18.73;11.82;;;11.50;99.90;;;;;;5085064;28;20229;-80
2021/03/25 00:19:52;;;;;;;15.40;12.30;;;11.50;99.90;;;;;;5083237;28;20902;-80
2021/03/25 00:22:18;;;;;;;15.80;11.60;;;11.50;99.90;;;;;;5090063;28;20236;-80
2021/03/25 00:24:44;;;;;;;20.77;12.88;;;11.50;99.90;;;;;;5090207;28;20278;-80
2021/03/25 00:27:10;;;;;;;16.02;11.80;;;11.50;99.90;;;;;;5091374;28;20262;-80
2021/03/25 00:29:36;;;;;;;18.30;11.95;;;11.40;99.90;;;;;;5080193;28;20198;-80
2021/03/25 00:32:03;;;;;;;19.52;12.13;;;11.40;99.90;;;;;;5075003;28;20253;-79
2021/03/25 00:34:29;;;;;;;22.20;13.80;;;11.40;99.90;;;;;;5074868;28;20220;-80
2021/03/25 00:36:56;;;;;;;18.65;14.15;;;11.40;99.90;;;;;;5079175;28;20205;-83
2021/03/25 00:39:23;;;;;;;18.90;11.63;;;11.40;99.90;;;;;;5072349;28;20199;-82
2021/03/25 00:41:49;;;;;;;15.70;11.60;;;11.40;99.90;;;;;;5071226;28;20789;-82
2021/03/25 00:44:15;;;;;;;19.83;12.52;;;11.40;99.90;;;;;;5070528;28;20218;-81
2021/03/25 00:46:42;;;;;;;17.45;12.90;;;11.40;99.90;;;;;;5070687;28;20194;-81
2021/03/25 00:49:09;;;;;;;20.08;12.93;;;11.30;99.90;;;;;;5080677;28;20210;-81
2021/03/25 00:51:35;;;;;;;17.10;12.18;;;11.30;99.90;;;;;;5081050;28;20276;-81
2021/03/25 00:54:03;;;;;;;19.23;13.40;;;11.30;99.90;;;;;;5076659;28;20248;-81
2021/03/25 00:56:29;;;;;;;16.20;13.32;;;11.30;99.90;;;;;;5081066;28;20209;-81
2021/03/25 00:58:55;;;;;;;20.30;12.68;;;11.30;99.90;;;;;;5078510;28;20708;-79
2021/03/25 01:01:24;;;;;;;17.95;12.63;;;11.30;99.90;;;;;;5070837;28;20218;-80
2021/03/25 01:03:50;;;;;;;16.80;11.90;;;11.30;99.90;;;;;;5082611;28;20197;-82
2021/03/25 01:06:17;;;;;;;16.40;12.10;;;11.30;99.90;;;;;;5075459;28;20624;-80
2021/03/25 01:08:43;;;;;;;19.63;13.90;;;11.20;99.90;;;;;;5070652;28;20210;-79
2021/03/25 01:11:14;;;;;;;17.15;11.93;;;11.20;99.90;;;;;;5070980;28;20198;-83
2021/03/25 01:13:43;;;;;;;19.77;12.73;;;11.20;99.90;;;;;;5070988;28;20224;-81
2021/03/25 01:16:14;;;;;;;18.13;12.48;;;11.20;99.90;;;;;;5072246;28;20244;-81
2021/03/25 01:18:40;;;;;;;18.08;11.45;;;11.10;99.90;;;;;;5088750;28;20274;-80
2021/03/25 01:21:06;;;;;;;18.48;13.20;;;11.10;99.90;;;;;;5076287;28;20214;-80
2021/03/25 01:23:33;;;;;;;17.67;12.60;;;11.10;99.90;;;;;;5090358;28;20237;-80
2021/03/25 01:25:59;;;;;;;17.75;12.95;;;11.10;99.90;;;;;;5083287;28;20272;-81
2021/03/25 01:28:26;;;;;;;19.85;12.43;;;11.10;99.90;;;;;;5070782;28;20600;-80
2021/03/25 01:30:52;;;;;;;17.55;13.68;;;11.10;99.90;;;;;;5070240;28;20210;-80
2021/03/25 01:33:21;;;;;;;17.13;13.07;;;11.10;99.90;;;;;;5083912;28;20224;-80
2021/03/25 01:35:47;;;;;;;19.42;12.82;;;11.10;99.90;;;;;;5089857;28;20225;-80
2021/03/25 01:38:15;;;;;;;18.60;16.10;;;11.00;99.90;;;;;;5078257;28;20194;-81
2021/03/25 01:40:44;;;;;;;21.13;14.23;;;11.00;99.90;;;;;;5085900;28;20200;-80
2021/03/25 01:43:15;;;;;;;19.58;12.85;;;11.00;99.90;;;;;;5089881;28;20213;-81
2021/03/25 01:45:47;;;;;;;16.90;12.68;;;11.00;99.90;;;;;;5089372;28;20198;-81
2021/03/25 01:48:14;;;;;;;17.80;13.20;;;11.00;99.90;;;;;;5090725;28;20217;-81
2021/03/25 01:50:41;;;;;;;19.60;13.80;;;10.90;99.90;;;;;;5087604;28;20194;-81
2021/03/25 01:53:35;;;;;;;17.02;12.75;;;11.00;99.90;;;;;;5071303;28;20194;-80
2021/03/25 01:56:09;;;;;;;22.52;14.35;;;10.90;99.90;;;;;;5070022;28;20217;-80
2021/03/25 01:59:24;;;;;;;17.33;12.68;;;10.90;99.90;;;;;;5070193;28;20186;-80
2021/03/25 02:01:54;;;;;;;19.00;13.02;;;10.90;99.90;;;;;;5046511;28;20221;-81
2021/03/25 02:04:28;;;;;;;16.20;12.40;;;10.90;99.90;;;;;;5072939;28;20213;-80
2021/03/25 02:07:03;;;;;;;20.88;13.30;;;10.90;99.90;;;;;;5079575;28;20225;-80
2021/03/25 02:09:41;;;;;;;19.17;13.45;;;10.80;99.90;;;;;;5073639;28;20221;-80
2021/03/25 02:12:13;;;;;;;20.23;13.10;;;10.80;99.90;;;;;;5074074;28;20221;-80
2021/03/25 02:14:47;;;;;;;19.65;13.23;;;10.80;99.90;;;;;;5073019;28;20218;-80
2021/03/25 02:17:20;;;;;;;19.00;12.45;;;10.80;99.90;;;;;;5072575;28;20225;-80
2021/03/25 02:20:24;;;;;;;19.92;13.55;;;10.80;99.90;;;;;;5078044;28;20217;-80
2021/03/25 02:23:27;;;;;;;18.65;13.50;;;10.80;99.90;;;;;;5073034;28;20234;-80
2021/03/25 02:25:57;;;;;;;17.85;13.05;;;10.80;99.90;;;;;;5049156;28;20216;-80
2021/03/25 02:28:39;;;;;;;19.02;11.93;;;10.80;99.90;;;;;;5078331;28;20592;-80
2021/03/25 02:31:12;;;;;;;20.65;13.38;;;10.70;99.90;;;;;;5087521;28;20221;-80
2021/03/25 02:33:41;;;;;;;21.25;13.40;;;10.80;99.90;;;;;;5090762;28;20214;-80
2021/03/25 02:36:11;;;;;;;21.98;13.35;;;10.70;99.90;;;;;;5073549;28;20186;-81
2021/03/25 02:38:43;;;;;;;22.05;13.15;;;10.70;99.90;;;;;;5074145;28;20218;-81
2021/03/25 02:41:16;;;;;;;21.63;11.90;;;10.70;99.90;;;;;;5085900;28;20213;-81
2021/03/25 02:43:47;;;;;;;19.70;13.80;;;10.70;99.90;;;;;;5081197;28;20758;-81
2021/03/25 02:46:18;;;;;;;18.95;12.68;;;10.70;99.90;;;;;;5073072;28;20244;-81
2021/03/25 02:48:47;;;;;;;21.30;12.95;;;10.70;99.90;;;;;;5073071;28;20577;-81
2021/03/25 02:51:18;;;;;;;16.60;13.55;;;10.60;99.90;;;;;;5089210;28;20205;-81
2021/03/25 02:53:47;;;;;;;15.50;12.63;;;10.60;99.90;;;;;;5084014;28;20213;-81
2021/03/25 02:56:18;;;;;;;20.15;14.32;;;10.60;99.90;;;;;;5072478;28;20218;-81
2021/03/25 02:58:49;;;;;;;19.50;13.82;;;10.60;99.90;;;;;;5075527;28;20235;-81
2021/03/25 03:01:19;;;;;;;21.60;13.73;;;10.60;99.90;;;;;;5093109;28;20220;-81
2021/03/25 03:03:48;;;;;;;22.42;13.77;;;10.60;99.90;;;;;;5072376;28;20218;-80
2021/03/25 03:06:20;;;;;;;19.38;13.70;;;10.60;99.90;;;;;;5086379;28;20209;-80
2021/03/25 03:08:49;;;;;;;16.55;13.20;;;10.60;99.90;;;;;;5076351;28;20182;-81
2021/03/25 03:11:19;;;;;;;19.90;13.55;;;10.50;99.90;;;;;;5079871;28;20693;-81
2021/03/25 03:13:50;;;;;;;19.77;12.65;;;10.50;99.90;;;;;;5081029;28;20275;-82
2021/03/25 03:16:22;;;;;;;22.15;14.10;;;10.50;99.90;;;;;;5085160;28;20594;-82
2021/03/25 03:18:55;;;;;;;19.52;13.02;;;10.50;99.90;;;;;;5091556;28;20557;-81
2021/03/25 03:21:28;;;;;;;19.23;13.05;;;10.50;99.90;;;;;;5073061;28;20717;-81
2021/03/25 03:23:55;;;;;;;20.65;14.00;;;10.50;99.90;;;;;;5072398;28;20272;-82
2021/03/25 03:26:24;;;;;;;18.63;14.00;;;10.50;99.90;;;;;;5072513;28;20623;-82
2021/03/25 03:29:03;;;;;;;25.13;15.63;;;10.40;99.90;;;;;;5084055;28;20205;-80
2021/03/25 03:31:39;;;;;;;25.42;13.68;;;10.50;99.90;;;;;;5072497;28;20740;-80
2021/03/25 03:34:10;;;;;;;20.58;14.70;;;10.50;99.90;;;;;;5088215;28;20185;-82
2021/03/25 03:36:39;;;;;;;24.20;13.63;;;10.40;99.90;;;;;;5072459;28;20202;-80
2021/03/25 03:39:10;;;;;;;24.60;16.42;;;10.40;99.90;;;;;;5091558;28;20215;-79
2021/03/25 03:41:41;;;;;;;19.15;13.82;;;10.40;99.90;;;;;;5091799;28;20225;-80
2021/03/25 03:44:12;;;;;;;21.40;13.70;;;10.40;99.90;;;;;;5092395;28;20209;-80
2021/03/25 03:46:41;;;;;;;21.30;13.70;;;10.40;99.90;;;;;;5090678;28;20218;-80
2021/03/25 03:49:10;;;;;;;21.25;14.20;;;10.40;99.90;;;;;;5089062;28;20188;-80
2021/03/25 03:51:41;;;;;;;21.70;14.43;;;10.40;99.90;;;;;;5078397;28;20847;-79
2021/03/25 03:54:08;;;;;;;19.27;13.80;;;10.30;99.90;;;;;;5080270;28;20217;-79
2021/03/25 03:56:41;;;;;;;18.15;12.25;;;10.40;99.90;;;;;;5083618;28;20198;-80
2021/03/25 03:59:12;;;;;;;17.70;14.77;;;10.30;99.90;;;;;;5075475;28;20668;-79
2021/03/25 04:01:44;;;;;;;22.88;15.15;;;10.30;99.90;;;;;;5071499;28;20225;-79
2021/03/25 04:04:16;;;;;;;21.35;15.63;;;10.30;99.90;;;;;;5071445;28;20214;-79
2021/03/25 04:06:47;;;;;;;19.58;12.60;;;10.30;99.90;;;;;;5071154;28;20182;-80
2021/03/25 04:09:18;;;;;;;21.25;14.05;;;10.30;99.90;;;;;;5070804;28;20187;-79
2021/03/25 04:11:51;;;;;;;23.65;13.82;;;10.30;99.90;;;;;;5070915;28;20210;-80
2021/03/25 04:14:22;;;;;;;20.85;12.50;;;10.30;99.90;;;;;;5072011;28;20218;-79
2021/03/25 04:16:51;;;;;;;21.35;15.35;;;10.30;99.90;;;;;;5078446;28;20210;-80
2021/03/25 04:19:23;;;;;;;21.35;14.70;;;10.30;99.90;;;;;;5088235;28;20194;-80
2021/03/25 04:21:54;;;;;;;22.60;14.57;;;10.30;99.90;;;;;;5083196;28;20225;-80
2021/03/25 04:24:25;;;;;;;18.95;13.25;;;10.20;99.90;;;;;;5086377;28;20194;-79
2021/03/25 04:26:58;;;;;;;21.67;13.48;;;10.20;99.90;;;;;;5087156;28;20206;-80
2021/03/25 04:29:28;;;;;;;19.10;13.55;;;10.20;99.90;;;;;;5080411;28;20218;-79
2021/03/25 04:31:57;;;;;;;19.67;13.45;;;10.20;99.90;;;;;;5071064;28;20221;-79
2021/03/25 04:34:23;;;;;;;18.08;13.35;;;10.20;99.90;;;;;;5071168;28;20230;-79
2021/03/25 04:36:50;;;;;;;21.42;14.50;;;10.20;99.90;;;;;;5071632;28;20190;-80
2021/03/25 04:39:18;;;;;;;19.45;13.93;;;10.20;99.90;;;;;;5071662;28;20217;-79
2021/03/25 04:41:46;;;;;;;23.00;14.95;;;10.20;99.90;;;;;;5076873;28;20228;-79
2021/03/25 04:44:24;;;;;;;21.55;13.75;;;10.20;99.90;;;;;;5080812;28;20213;-78
2021/03/25 04:46:56;;;;;;;24.10;15.80;;;10.20;99.90;;;;;;5071019;28;20186;-78
2021/03/25 04:49:29;;;;;;;19.88;13.45;;;10.20;99.90;;;;;;5071420;28;20668;-77
2021/03/25 04:52:01;;;;;;;21.23;13.20;;;10.10;99.90;;;;;;5070851;28;20213;-77
2021/03/25 04:54:30;;;;;;;18.58;13.55;;;10.20;99.90;;;;;;5069882;28;20218;-78
2021/03/25 04:57:06;;;;;;;20.48;14.52;;;10.20;99.90;;;;;;5070642;28;20201;-78
2021/03/25 04:59:34;;;;;;;20.40;14.45;;;10.10;99.90;;;;;;5070442;28;20217;-78
2021/03/25 05:02:01;;;;;;;19.98;15.00;;;10.20;99.90;;;;;;5087334;28;20220;-78
2021/03/25 05:04:28;;;;;;;18.05;13.23;;;10.10;99.90;;;;;;5085237;28;20221;-78
2021/03/25 05:06:57;;;;;;;19.15;13.68;;;10.10;99.90;;;;;;5090999;28;20201;-78
2021/03/25 05:09:27;;;;;;;21.45;14.10;;;10.10;99.90;;;;;;5088124;28;20228;-78
2021/03/25 05:11:55;;;;;;;20.30;13.85;;;10.10;99.90;;;;;;5078963;28;20249;-78
2021/03/25 05:14:24;;;;;;;21.23;14.63;;;10.10;99.90;;;;;;5073278;28;20631;-78
2021/03/25 05:17:02;;;;;;;23.13;14.07;;;10.10;99.90;;;;;;5085119;28;20217;-79
2021/03/25 05:19:39;;;;;;;24.42;13.05;;;10.10;99.90;;;;;;5090484;28;20216;-79
2021/03/25 05:22:14;;;;;;;16.15;12.52;;;10.10;99.90;;;;;;5071129;28;20817;-77
2021/03/25 05:24:44;;;;;;;23.90;14.55;;;10.10;99.90;;;;;;5070568;28;20214;-79
2021/03/25 05:27:17;;;;;;;19.45;12.82;;;10.10;99.90;;;;;;5074949;28;20213;-79
2021/03/25 05:29:47;;;;;;;20.33;14.38;;;10.00;99.90;;;;;;5079635;28;20229;-79
2021/03/25 05:32:19;;;;;;;17.83;13.20;;;10.10;99.90;;;;;;5088026;28;20193;-79
2021/03/25 05:34:48;;;;;;;19.75;13.02;;;10.10;99.90;;;;;;5090708;28;20263;-79
2021/03/25 05:37:14;;;;;;;25.05;13.45;;;10.10;99.90;;;;;;5083515;28;20225;-80
2021/03/25 05:39:41;;;;;;;25.73;15.25;;;10.10;99.90;;;;;;5071623;28;20225;-79
2021/03/25 05:42:20;;;;;;;23.17;13.57;;;10.10;99.90;;;;;;5079809;28;20656;-78
2021/03/25 05:45:16;;;;;;;20.27;12.70;;;10.00;99.90;;;;;;5076011;28;20247;-80
2021/03/25 05:48:14;;;;;;;23.30;14.18;;;10.00;99.90;;;;;;5074043;28;20198;-79
2021/03/25 05:50:49;;;;;;;18.40;13.63;;;10.00;99.90;;;;;;5079865;28;20382;-78
2021/03/25 05:53:27;;;;;;;20.67;13.63;;;10.00;99.90;;;;;;5090443;28;20213;-79
2021/03/25 05:56:09;;;;;;;17.75;11.20;;;10.00;99.90;;;;;;5073761;28;20198;-78
2021/03/25 05:58:38;;;;;;;20.42;14.75;;;10.00;99.90;;;;;;5073567;28;20229;-79
2021/03/25 06:01:21;;;;;;;19.73;13.05;;;10.00;99.90;;;;;;5080333;28;20222;-78
2021/03/25 06:03:58;;;;;;;20.42;14.45;;;10.00;99.90;;;;;;5093861;28;20189;-78
2021/03/25 06:06:49;;;;;;;22.60;13.82;;;10.00;99.90;;;;;;5084754;28;20198;-78
2021/03/25 06:09:21;;;;;;;21.25;12.88;;;10.00;99.90;;;;;;5073406;28;20240;-79
2021/03/25 06:11:58;;;;;;;25.10;13.88;;;10.00;99.90;;;;;;5087204;28;20221;-78
2021/03/25 06:14:41;;;;;;;20.30;13.40;;;10.00;99.90;;;;;;5091857;28;20217;-78
2021/03/25 06:17:33;;;;;;;20.50;13.50;;;10.00;99.90;;;;;;5077600;28;20222;-79
2021/03/25 06:20:20;;;;;;;20.63;13.38;;;10.00;99.90;;;;;;5083570;28;20288;-79
2021/03/25 06:23:06;;;;;;;24.70;14.70;;;10.00;99.90;;;;;;5072574;28;20309;-78
2021/03/25 06:25:43;;;;;;;22.73;14.13;;;10.00;99.90;;;;;;5072966;28;20699;-79
2021/03/25 06:28:20;;;;;;;22.80;14.80;;;10.00;99.90;;;;;;5073351;28;20202;-79
2021/03/25 06:31:03;;;;;;;21.27;14.05;;;10.00;99.90;;;;;;5072830;28;20190;-79
2021/03/25 06:33:34;;;;;;;21.17;14.52;;;10.00;99.90;;;;;;5073370;28;20561;-79
2021/03/25 06:36:04;;;;;;;18.02;13.57;;;10.00;99.90;;;;;;5072743;28;20217;-79
2021/03/25 06:38:34;;;;;;;21.05;14.68;;;10.00;99.90;;;;;;5073273;28;20194;-79
2021/03/25 06:41:07;;;;;;;26.23;15.75;;;10.00;99.90;;;;;;5072770;28;20263;-79
2021/03/25 06:43:40;;;;;;;22.13;14.75;;;10.00;99.90;;;;;;5073206;28;20206;-78
2021/03/25 06:46:17;;;;;;;20.83;13.95;;;10.00;99.90;;;;;;5080104;28;20186;-79
2021/03/25 06:48:47;;;;;;;23.42;15.95;;;10.00;99.90;;;;;;5084317;28;20221;-79
2021/03/25 06:51:20;;;;;;;23.98;15.20;;;10.00;99.90;;;;;;5079465;28;20573;-78
2021/03/25 06:53:50;;;;;;;22.83;15.52;;;10.00;99.90;;;;;;5073056;28;20219;-78
2021/03/25 06:56:21;;;;;;;20.73;14.25;;;10.00;99.90;;;;;;5084781;28;20259;-79
2021/03/25 06:58:52;;;;;;;19.40;13.75;;;10.10;99.90;;;;;;5084500;28;20186;-78
2021/03/25 07:01:25;;;;;;;21.92;14.10;;;10.10;99.90;;;;;;5073549;28;20218;-78
2021/03/25 07:03:55;;;;;;;24.50;15.93;;;10.10;99.90;;;;;;5084758;28;20567;-79
2021/03/25 07:06:23;;;;;;;25.08;15.60;;;10.10;99.90;;;;;;5086909;28;20209;-80
2021/03/25 07:08:50;;;;;;;25.88;18.50;;;10.00;99.90;;;;;;5091228;28;20224;-80
2021/03/25 07:11:19;;;;;;;25.27;17.20;;;10.00;99.90;;;;;;5085608;28;20201;-80
2021/03/25 07:13:49;;;;;;;29.08;19.52;;;10.00;99.90;;;;;;5074365;28;20210;-80
2021/03/25 07:16:15;;;;;;;25.52;16.55;;;10.00;99.90;;;;;;5084871;28;20214;-81
2021/03/25 07:18:55;;;;;;;21.20;16.45;;;10.00;99.90;;;;;;5090381;28;20214;-81
2021/03/25 07:21:29;;;;;;;23.77;14.32;;;10.10;99.90;;;;;;5091271;28;20217;-80
2021/03/25 07:23:58;;;;;;;20.90;14.98;;;10.10;99.90;;;;;;5077374;28;20209;-81
2021/03/25 07:26:30;;;;;;;22.60;15.90;;;10.10;99.90;;;;;;5081296;28;20217;-79
2021/03/25 07:29:15;;;;;;;25.20;16.42;;;10.20;99.90;;;;;;5076619;28;20265;-80
2021/03/25 07:31:48;;;;;;;18.38;13.55;;;10.20;99.90;;;;;;5069642;28;20210;-80
2021/03/25 07:34:30;;;;;;;22.15;14.68;;;10.20;99.90;;;;;;5071326;28;20210;-79
2021/03/25 07:36:57;;;;;;;21.90;12.80;;;10.30;99.90;;;;;;5071867;28;20210;-79
2021/03/25 07:39:27;;;;;;;21.45;13.88;;;10.30;99.90;;;;;;5071606;28;20632;-79
2021/03/25 07:41:56;;;;;;;16.02;13.32;;;10.40;99.90;;;;;;5081824;28;20225;-78
2021/03/25 07:44:38;;;;;;;19.90;13.18;;;10.50;99.90;;;;;;5083071;28;20220;-80
2021/03/25 07:47:07;;;;;;;21.80;13.77;;;10.50;99.90;;;;;;5091820;28;20224;-79
2021/03/25 07:49:37;;;;;;;22.67;13.98;;;10.60;99.90;;;;;;5091320;28;20225;-79
2021/03/25 07:52:06;;;;;;;16.83;11.95;;;10.70;99.90;;;;;;5088423;28;20204;-79
2021/03/25 07:54:35;;;;;;;15.82;12.35;;;10.70;99.90;;;;;;5076797;28;20198;-79
2021/03/25 07:57:13;;;;;;;16.05;12.05;;;10.80;99.90;;;;;;5071780;28;20195;-80
2021/03/25 07:59:45;;;;;;;16.25;11.65;;;10.70;99.90;;;;;;5087414;28;20217;-80
2021/03/25 08:02:27;;;;;;;17.38;11.95;;;10.70;99.90;;;;;;5071349;28;20214;-79
2021/03/25 08:04:54;;;;;;;18.17;12.45;;;10.70;99.90;;;;;;5071145;28;20696;-79
2021/03/25 08:07:22;;;;;;;16.58;10.65;;;10.70;99.90;;;;;;5070866;28;20210;-79
2021/03/25 08:09:52;;;;;;;16.13;11.95;;;10.70;99.90;;;;;;5070937;28;20229;-79
2021/03/25 08:12:26;;;;;;;19.02;11.38;;;10.70;99.90;;;;;;5075806;28;20214;-79
2021/03/25 08:15:06;;;;;;;13.27;10.50;;;10.70;99.90;;;;;;5078650;28;20218;-79
2021/03/25 08:17:40;;;;;;;14.27;10.57;;;10.70;99.90;;;;;;5080838;28;20214;-79
2021/03/25 08:20:14;;;;;;;20.58;12.27;;;10.70;99.90;;;;;;5075792;28;20210;-80
2021/03/25 08:23:13;;;;;;;15.55;11.27;;;10.80;99.90;;;;;;5082270;28;20234;-76
2021/03/25 08:25:43;;;;;;;17.30;10.45;;;10.80;99.90;;;;;;5070690;28;20214;-75
2021/03/25 08:28:28;;;;;;;16.25;10.20;;;10.80;99.90;;;;;;5070366;28;20186;-76
2021/03/25 08:31:06;;;;;;;15.88;10.38;;;10.80;99.90;;;;;;5070162;28;20220;-76
2021/03/25 08:33:56;;;;;;;14.85;10.20;;;10.90;99.90;;;;;;5075101;28;20209;-75
2021/03/25 08:36:24;;;;;;;13.63;9.85;;;10.90;99.90;;;;;;5076667;28;20193;-77
2021/03/25 08:39:29;;;;;;;20.77;13.43;;;10.90;99.90;;;;;;5080062;28;20229;-76
2021/03/25 08:42:01;;;;;;;15.65;10.85;;;10.90;99.90;;;;;;5079388;28;20218;-77
2021/03/25 08:44:35;;;;;;;18.65;11.98;;;10.90;99.90;;;;;;5070773;28;20817;-77
2021/03/25 08:47:07;;;;;;;14.55;11.02;;;10.90;99.90;;;;;;5074095;28;20577;-76
2021/03/25 08:49:38;;;;;;;16.15;10.32;;;10.90;99.90;;;;;;5085516;28;20194;-76
2021/03/25 08:52:08;;;;;;;15.85;10.95;;;10.90;99.90;;;;;;5083388;28;20218;-83
2021/03/25 08:54:40;;;;;;;14.82;10.23;;;11.00;99.90;;;;;;5075921;28;20209;-79
2021/03/25 08:57:15;;;;;;;13.57;10.85;;;11.00;99.90;;;;;;5079246;28;20278;-79
2021/03/25 08:59:46;;;;;;;17.95;11.02;;;11.00;99.90;;;;;;5069898;28;20190;-79
2021/03/25 09:02:17;;;;;;;16.67;10.30;;;11.10;99.90;;;;;;5079476;28;20564;-80
2021/03/25 09:04:50;;;;;;;11.68;9.50;;;11.10;99.90;;;;;;5078884;28;20271;-80
2021/03/25 09:07:18;;;;;;;11.93;9.27;;;11.10;99.90;;;;;;5084777;28;20282;-80
2021/03/25 09:09:46;;;;;;;20.00;12.98;;;11.20;99.90;;;;;;5077010;28;20214;-80
2021/03/25 09:12:19;;;;;;;16.10;11.15;;;11.20;99.90;;;;;;5077815;28;20198;-80
2021/03/25 09:14:46;;;;;;;18.42;14.07;;;11.30;99.90;;;;;;5075067;28;20313;-79
2021/03/25 09:17:17;;;;;;;17.85;13.48;;;11.30;99.90;;;;;;5088162;28;20197;-80
2021/03/25 09:19:46;;;;;;;17.25;13.02;;;11.30;99.90;;;;;;5083626;28;20218;-80
2021/03/25 09:22:35;;;;;;;20.70;10.77;;;11.30;99.90;;;;;;5090160;28;20217;-80
2021/03/25 09:25:31;;;;;;;12.55;9.50;;;11.30;99.90;;;;;;5076412;28;20293;-80
2021/03/25 09:28:00;;;;;;;24.70;15.05;;;11.30;99.90;;;;;;5079775;28;20262;-79
2021/03/25 09:30:36;;;;;;;24.17;14.27;;;11.40;99.90;;;;;;5082828;28;20194;-80
2021/03/25 09:33:38;;;;;;;16.85;10.75;;;11.40;99.90;;;;;;5074360;28;20224;-75
2021/03/25 09:36:50;;;;;;;21.55;14.05;;;11.40;99.90;;;;;;5093947;28;20209;-79
2021/03/25 09:39:33;;;;;;;18.85;12.32;;;11.40;99.90;;;;;;5074760;28;20657;-79
2021/03/25 09:42:03;;;;;;;29.15;17.15;;;11.40;99.90;;;;;;5081543;28;20699;-79
2021/03/25 09:44:35;;;;;;;21.35;14.05;;;11.50;99.90;;;;;;5094304;28;20213;-79
2021/03/25 09:47:26;;;;;;;21.27;13.98;;;11.50;99.90;;;;;;5077017;28;20301;-79
2021/03/25 09:49:56;;;;;;;19.95;13.23;;;11.50;99.90;;;;;;5074208;28;20198;-80
2021/03/25 09:52:35;;;;;;;21.20;13.65;;;11.50;99.90;;;;;;5074149;28;20214;-79
2021/03/25 09:55:25;;;;;;;22.48;15.95;;;11.60;99.90;;;;;;5075959;28;20232;-79
2021/03/25 09:57:53;;;;;;;21.20;13.50;;;11.60;99.90;;;;;;5058756;28;20198;-79
2021/03/25 10:00:57;;;;;;;26.58;17.20;;;11.60;99.90;;;;;;5073927;28;20194;-78
2021/03/25 10:04:05;;;;;;;24.83;15.10;;;11.60;99.90;;;;;;5087867;28;20258;-79
2021/03/25 10:06:55;;;;;;;24.25;17.05;;;11.70;99.90;;;;;;5085194;28;20232;-79
2021/03/25 10:09:59;;;;;;;22.38;15.30;;;11.70;99.90;;;;;;5086333;28;20214;-79
2021/03/25 10:13:01;;;;;;;26.50;14.30;;;11.70;99.90;;;;;;5073652;28;20222;-79
2021/03/25 10:15:50;;;;;;;24.70;15.77;;;11.70;99.90;;;;;;5083509;28;20185;-79
2021/03/25 10:18:57;;;;;;;18.88;12.90;;;11.70;99.90;;;;;;5083717;28;20213;-79
2021/03/25 10:22:00;;;;;;;24.10;15.40;;;11.80;99.90;;;;;;5089679;28;20553;-79
2021/03/25 10:24:40;;;;;;;22.92;15.45;;;11.90;99.90;;;;;;5075736;28;20190;-79
2021/03/25 10:27:20;;;;;;;19.05;13.15;;;11.90;99.90;;;;;;5073421;28;20571;-79
2021/03/25 10:29:48;;;;;;;22.88;14.70;;;12.00;99.90;;;;;;5072963;28;20190;-79
2021/03/25 10:32:24;;;;;;;34.40;22.17;;;12.00;99.90;;;;;;5072387;28;20222;-79
2021/03/25 10:34:56;;;;;;;21.90;15.98;;;12.10;99.90;;;;;;5072552;28;20596;-80
2021/03/25 10:37:30;;;;;;;28.75;17.52;;;12.10;99.90;;;;;;5072503;28;20221;-80
2021/03/25 10:40:07;;;;;;;23.30;17.00;;;12.20;99.90;;;;;;5072799;28;20669;-79
2021/03/25 10:42:36;;;;;;;27.80;16.50;;;12.30;99.90;;;;;;5076601;28;20228;-80
2021/03/25 10:45:23;;;;;;;28.95;18.50;;;12.30;99.90;;;;;;5074625;28;20259;-80
2021/03/25 10:47:57;;;;;;;25.45;17.15;;;12.40;99.90;;;;;;5074990;28;20191;-79
2021/03/25 10:50:31;;;;;;;28.88;20.45;;;12.40;99.90;;;;;;5079523;28;20271;-78
2021/03/25 10:53:05;;;;;;;25.17;16.40;;;12.50;99.90;;;;;;5083753;28;20189;-78
2021/03/25 10:55:38;;;;;;;22.40;16.15;;;12.50;99.90;;;;;;5092355;28;20739;-78
2021/03/25 10:58:06;;;;;;;31.40;20.75;;;12.50;99.90;;;;;;5077435;28;20182;-78
2021/03/25 11:00:36;;;;;;;33.83;21.27;;;12.60;99.90;;;;;;5081445;28;20214;-79
2021/03/25 11:03:18;;;;;;;27.83;17.92;;;12.60;99.90;;;;;;5084033;28;20271;-80
2021/03/25 11:05:52;;;;;;;24.85;16.52;;;12.60;99.90;;;;;;5080795;28;20232;-79
2021/03/25 11:08:30;;;;;;;26.75;18.20;;;12.60;99.90;;;;;;5074710;28;20721;-79
2021/03/25 11:11:00;;;;;;;25.58;17.33;;;12.70;99.90;;;;;;5086907;28;20275;-79
2021/03/25 11:13:27;;;;;;;29.33;17.25;;;12.70;99.90;;;;;;5084541;28;20212;-79
2021/03/25 11:15:59;;;;;;;32.72;22.00;;;12.80;99.90;;;;;;5077468;28;20214;-80
2021/03/25 11:18:30;;;;;;;37.10;22.30;;;12.80;99.90;;;;;;5076690;28;20217;-80
2021/03/25 11:20:57;;;;;;;34.15;23.45;;;12.80;99.90;;;;;;5073421;28;20233;-78
2021/03/25 11:23:26;;;;;;;27.60;20.38;;;12.80;99.90;;;;;;5088648;28;20626;-82
2021/03/25 11:25:55;;;;;;;33.05;21.65;;;12.80;99.90;;;;;;5081643;28;20206;-78
2021/03/25 11:28:23;;;;;;;34.03;23.08;;;12.80;99.90;;;;;;5075976;28;20194;-78
2021/03/25 11:30:52;;;;;;;31.23;22.25;;;12.80;99.90;;;;;;5076262;28;20217;-75
2021/03/25 11:33:24;;;;;;;38.58;23.65;;;12.90;99.90;;;;;;5083519;28;20213;-78
2021/03/25 11:35:51;;;;;;;35.00;24.48;;;12.80;99.90;;;;;;5079870;28;20209;-78
2021/03/25 11:38:29;;;;;;;38.40;23.92;;;12.90;99.90;;;;;;5076427;28;20194;-77
2021/03/25 11:40:57;;;;;;;26.42;21.33;;;12.90;99.90;;;;;;5071616;28;20565;-77
2021/03/25 11:43:39;;;;;;;41.00;27.27;;;12.90;99.90;;;;;;5077468;28;20300;-76
2021/03/25 11:46:06;;;;;;;38.03;23.95;;;12.90;99.90;;;;;;5077730;28;20204;-78
2021/03/25 11:48:34;;;;;;;38.45;25.27;;;12.90;99.90;;;;;;5081270;28;20197;-84
2021/03/25 11:51:22;;;;;;;33.40;22.88;;;12.90;99.90;;;;;;5092708;28;20217;-84
2021/03/25 11:53:50;;;;;;;37.05;24.13;;;12.90;99.90;;;;;;5092450;28;20217;-83
2021/03/25 11:56:24;;;;;;;31.17;22.48;;;12.90;99.90;;;;;;5077069;28;20198;-78
2021/03/25 11:58:55;;;;;;;44.95;25.83;;;12.90;99.90;;;;;;5071693;28;20210;-79
2021/03/25 12:01:25;;;;;;;35.17;23.58;;;12.90;99.90;;;;;;5072724;28;20206;-78
2021/03/25 12:03:54;;;;;;;35.58;25.42;;;12.90;99.90;;;;;;5076723;28;20569;-83
2021/03/25 12:06:23;;;;;;;38.78;26.23;;;12.90;99.90;;;;;;5074477;28;20581;-84
2021/03/25 12:09:06;;;;;;;31.02;23.13;;;13.00;99.90;;;;;;5077284;28;20210;-83
2021/03/25 12:11:34;;;;;;;36.28;26.80;;;12.90;99.90;;;;;;5086249;28;20209;-83
2021/03/25 12:14:01;;;;;;;38.45;24.33;;;13.00;99.90;;;;;;5080448;28;20213;-84
2021/03/25 12:16:27;;;;;;;40.30;24.67;;;13.00;99.90;;;;;;5072034;28;20210;-84
2021/03/25 12:18:57;;;;;;;37.60;25.77;;;13.00;99.90;;;;;;5084223;28;20217;-83
2021/03/25 12:21:24;;;;;;;45.53;29.58;;;13.00;99.90;;;;;;5072134;28;20229;-84
2021/03/25 12:23:54;;;;;;;38.00;24.70;;;13.00;99.90;;;;;;5072179;28;20252;-84
2021/03/25 12:26:20;;;;;;;37.33;25.02;;;13.00;99.90;;;;;;5078774;28;20186;-84
2021/03/25 12:28:47;;;;;;;44.10;28.20;;;13.00;99.90;;;;;;5084947;28;20266;-81
2021/03/25 12:31:16;;;;;;;32.75;25.45;;;13.00;99.90;;;;;;5071212;28;20214;-83
2021/03/25 12:33:42;;;;;;;35.50;24.67;;;13.00;99.90;;;;;;5073511;28;20219;-83
2021/03/25 12:36:09;;;;;;;33.70;24.92;;;13.00;99.90;;;;;;5072434;28;20186;-83
2021/03/25 12:38:37;;;;;;;44.65;25.20;;;13.00;99.90;;;;;;5072447;28;20653;-83
2021/03/25 12:41:03;;;;;;;37.53;25.05;;;13.00;99.90;;;;;;5079337;28;20718;-82
2021/03/25 12:43:32;;;;;;;36.88;25.15;;;13.10;99.90;;;;;;5089784;28;20220;-84
2021/03/25 12:46:02;;;;;;;35.92;26.98;;;13.00;99.90;;;;;;5079195;28;20186;-83
2021/03/25 12:48:30;;;;;;;34.78;25.40;;;13.00;99.90;;;;;;5088281;28;20206;-83
2021/03/25 12:50:58;;;;;;;41.13;27.23;;;13.10;99.90;;;;;;5077093;28;20182;-84
2021/03/25 12:53:26;;;;;;;37.05;25.40;;;13.10;99.90;;;;;;5080996;28;20210;-84
2021/03/25 12:55:53;;;;;;;41.35;27.48;;;13.10;99.90;;;;;;5090903;28;20186;-83
2021/03/25 12:58:21;;;;;;;48.70;31.08;;;13.10;99.90;;;;;;5076826;28;20266;-83